createdAt,value
2022-10-22T00:00:12.852Z,16.04
2022-10-22T00:02:39.739Z,16.07
2022-10-22T00:05:07.373Z,16.04
2022-10-22T00:07:34.435Z,15.91
2022-10-22T00:10:01.382Z,15.91
2022-10-22T00:12:28.650Z,15.94
2022-10-22T00:14:55.588Z,15.97
2022-10-22T00:17:22.452Z,15.93
2022-10-22T00:19:49.221Z,15.97
2022-10-22T00:22:16.590Z,15.93
2022-10-22T00:24:43.465Z,16.01
2022-10-22T00:27:11.843Z,16.01
2022-10-22T00:29:38.899Z,15.88
2022-10-22T00:32:06.875Z,15.85
2022-10-22T00:34:34.143Z,15.95
2022-10-22T00:37:00.968Z,15.86
2022-10-22T00:39:28.430Z,15.87
2022-10-22T00:41:57.498Z,15.96
2022-10-22T00:45:11.133Z,15.96
2022-10-22T00:47:40.828Z,15.94
2022-10-22T00:50:16.011Z,15.84
2022-10-22T00:52:43.302Z,15.94
2022-10-22T00:55:10.425Z,15.92
2022-10-22T00:57:37.471Z,15.84
2022-10-22T01:00:06.121Z,15.90
2022-10-22T01:02:33.478Z,15.73
2022-10-22T01:05:00.297Z,15.90
2022-10-22T01:07:27.065Z,15.86
2022-10-22T01:10:14.051Z,15.89
2022-10-22T01:12:40.912Z,15.88
2022-10-22T01:15:37.712Z,15.79
2022-10-22T01:18:38.358Z,15.78
2022-10-22T01:21:30.782Z,15.72
2022-10-22T01:24:15.534Z,15.79
2022-10-22T01:26:57.392Z,15.81
2022-10-22T01:29:53.790Z,15.76
2022-10-22T01:32:26.209Z,15.80
2022-10-22T01:35:04.961Z,15.75
2022-10-22T01:37:38.643Z,15.75
2022-10-22T01:40:07.893Z,15.75
2022-10-22T01:42:34.730Z,15.66
2022-10-22T01:45:01.599Z,15.74
2022-10-22T01:48:03.640Z,15.74
2022-10-22T01:50:41.057Z,15.74
2022-10-22T01:53:23.937Z,15.74
2022-10-22T01:56:27.712Z,15.75
2022-10-22T01:59:24.103Z,15.75
2022-10-22T02:02:08.879Z,15.72
2022-10-22T02:04:59.019Z,15.72
2022-10-22T02:07:32.587Z,15.67
2022-10-22T02:10:01.111Z,15.60
2022-10-22T02:12:30.874Z,15.73
2022-10-22T02:14:59.095Z,15.66
2022-10-22T02:17:29.249Z,15.69
2022-10-22T02:20:11.021Z,15.60
2022-10-22T02:22:38.419Z,15.65
2022-10-22T02:25:06.834Z,15.70
2022-10-22T02:27:47.360Z,15.71
2022-10-22T02:30:18.636Z,15.54
2022-10-22T02:33:30.538Z,15.63
2022-10-22T02:35:58.850Z,15.65
2022-10-22T02:38:27.282Z,15.63
2022-10-22T02:40:54.171Z,15.66
2022-10-22T02:43:24.581Z,15.50
2022-10-22T02:45:51.710Z,15.61
2022-10-22T02:48:18.486Z,15.61
2022-10-22T02:50:45.353Z,15.57
2022-10-22T02:53:12.125Z,15.67
2022-10-22T02:55:38.903Z,15.58
2022-10-22T02:58:05.652Z,15.63
2022-10-22T03:00:32.661Z,15.51
2022-10-22T03:02:59.497Z,15.60
2022-10-22T03:05:26.313Z,15.57
2022-10-22T03:07:53.146Z,15.47
2022-10-22T03:10:19.966Z,15.58
2022-10-22T03:12:46.733Z,15.58
2022-10-22T03:15:13.488Z,15.53
2022-10-22T03:17:40.516Z,15.56
2022-10-22T03:20:08.207Z,15.54
2022-10-22T03:22:36.474Z,15.48
2022-10-22T03:25:12.032Z,15.42
2022-10-22T03:27:40.499Z,15.48
2022-10-22T03:30:08.918Z,15.51
2022-10-22T03:32:35.699Z,15.52
2022-10-22T03:35:02.497Z,15.55
2022-10-22T03:37:30.181Z,15.57
2022-10-22T03:39:57.015Z,15.55
2022-10-22T03:42:24.543Z,15.55
2022-10-22T03:44:51.641Z,15.44
2022-10-22T03:47:18.600Z,15.54
2022-10-22T03:49:45.454Z,15.50
2022-10-22T03:52:15.056Z,15.52
2022-10-22T03:54:42.214Z,15.40
2022-10-22T03:57:10.285Z,15.41
2022-10-22T03:59:40.624Z,15.51
2022-10-22T04:02:07.842Z,15.43
2022-10-22T04:04:35.522Z,15.38
2022-10-22T04:07:02.533Z,15.43
2022-10-22T04:09:32.722Z,15.49
2022-10-22T04:12:00.174Z,15.46
2022-10-22T04:14:26.983Z,15.44
2022-10-22T04:16:54.712Z,15.37
2022-10-22T04:19:21.481Z,15.41
2022-10-22T04:21:48.306Z,15.51
2022-10-22T04:24:16.353Z,15.51
2022-10-22T04:26:43.412Z,15.51
2022-10-22T04:29:13.562Z,15.49
2022-10-22T04:31:42.898Z,15.43
2022-10-22T04:34:09.698Z,15.40
2022-10-22T04:36:36.547Z,15.34
2022-10-22T04:39:04.622Z,15.41
2022-10-22T04:41:37.754Z,15.40
2022-10-22T04:44:05.670Z,15.41
2022-10-22T04:46:35.544Z,15.33
2022-10-22T04:49:03.902Z,15.14
2022-10-22T04:51:31.993Z,15.31
2022-10-22T04:53:59.058Z,15.20
2022-10-22T04:56:30.152Z,15.33
2022-10-22T04:59:00.347Z,15.27
2022-10-22T05:01:42.712Z,15.20
2022-10-22T05:04:14.608Z,15.26
2022-10-22T05:06:41.618Z,15.26
2022-10-22T05:09:14.636Z,15.15
2022-10-22T05:11:46.185Z,15.21
2022-10-22T05:14:13.259Z,15.20
2022-10-22T05:16:40.168Z,15.10
2022-10-22T05:19:08.129Z,15.04
2022-10-22T05:21:35.704Z,15.10
2022-10-22T05:24:03.959Z,15.05
2022-10-22T05:26:30.789Z,15.15
2022-10-22T05:28:57.649Z,15.13
2022-10-22T05:31:24.567Z,15.10
2022-10-22T05:33:51.367Z,15.05
2022-10-22T05:36:21.900Z,15.05
2022-10-22T05:38:49.442Z,14.99
2022-10-22T05:41:20.414Z,15.05
2022-10-22T05:43:48.231Z,15.03
2022-10-22T05:46:22.483Z,15.02
2022-10-22T05:48:59.115Z,15.04
2022-10-22T05:51:29.153Z,15.01
2022-10-22T05:54:00.529Z,15.04
2022-10-22T05:56:30.173Z,15.00
2022-10-22T05:58:57.004Z,14.98
2022-10-22T06:01:31.512Z,15.00
2022-10-22T06:04:05.098Z,14.99
2022-10-22T06:06:53.087Z,14.92
2022-10-22T06:09:26.414Z,14.99
2022-10-22T06:11:53.309Z,14.97
2022-10-22T06:14:21.161Z,14.92
2022-10-22T06:16:49.000Z,14.98
2022-10-22T06:19:20.422Z,14.99
2022-10-22T06:21:48.018Z,15.01
2022-10-22T06:24:15.693Z,14.94
2022-10-22T06:26:42.519Z,14.81
2022-10-22T06:29:09.847Z,14.92
2022-10-22T06:31:36.843Z,14.92
2022-10-22T06:34:11.751Z,14.93
2022-10-22T06:36:39.359Z,14.91
2022-10-22T06:39:06.137Z,14.86
2022-10-22T06:41:33.015Z,14.90
2022-10-22T06:43:59.977Z,14.85
2022-10-22T06:46:27.050Z,14.82
2022-10-22T06:48:59.173Z,14.94
2022-10-22T06:51:27.175Z,14.84
2022-10-22T06:53:55.684Z,14.82
2022-10-22T06:56:25.793Z,14.89
2022-10-22T06:58:55.421Z,14.92
2022-10-22T07:01:27.136Z,14.92
2022-10-22T07:03:54.814Z,14.97
2022-10-22T07:06:23.125Z,14.99
2022-10-22T07:08:50.149Z,14.98
2022-10-22T07:11:26.307Z,15.02
2022-10-22T07:13:56.215Z,15.04
2022-10-22T07:16:24.857Z,15.12
2022-10-22T07:18:54.853Z,15.09
2022-10-22T07:21:22.667Z,15.11
2022-10-22T07:23:50.017Z,15.07
2022-10-22T07:26:17.773Z,15.06
2022-10-22T07:28:44.582Z,15.13
2022-10-22T07:31:13.527Z,15.16
2022-10-22T07:33:40.753Z,15.15
2022-10-22T07:36:17.147Z,15.11
2022-10-22T07:38:49.799Z,15.19
2022-10-22T07:41:17.371Z,15.19
2022-10-22T07:43:44.247Z,15.13
2022-10-22T07:46:11.535Z,15.26
2022-10-22T07:48:38.499Z,15.26
2022-10-22T07:51:05.757Z,15.25
2022-10-22T07:53:33.322Z,15.30
2022-10-22T07:56:00.235Z,15.24
2022-10-22T07:58:26.988Z,15.24
2022-10-22T08:01:00.644Z,15.27
2022-10-22T08:03:29.101Z,15.29
2022-10-22T08:05:55.943Z,15.32
2022-10-22T08:08:25.871Z,15.33
2022-10-22T08:10:58.670Z,15.39
2022-10-22T08:13:27.378Z,15.36
2022-10-22T08:15:57.282Z,15.40
2022-10-22T08:18:25.377Z,15.37
2022-10-22T08:20:52.478Z,15.47
2022-10-22T08:23:21.203Z,15.47
2022-10-22T08:25:51.077Z,15.44
2022-10-22T08:28:21.149Z,15.52
2022-10-22T08:30:49.233Z,15.53
2022-10-22T08:33:15.962Z,15.54
2022-10-22T08:35:42.742Z,15.41
2022-10-22T08:38:09.509Z,15.56
2022-10-22T08:40:40.394Z,15.48
2022-10-22T08:43:18.036Z,15.59
2022-10-22T08:46:22.898Z,15.60
2022-10-22T08:48:56.200Z,15.61
2022-10-22T08:51:27.790Z,15.56
2022-10-22T08:54:28.195Z,15.65
2022-10-22T08:57:51.383Z,15.67
2022-10-22T09:00:48.046Z,15.69
2022-10-22T09:03:57.521Z,15.67
2022-10-22T09:06:27.578Z,15.66
2022-10-22T09:08:56.886Z,15.72
2022-10-22T09:11:31.860Z,15.72
2022-10-22T09:14:00.317Z,15.71
2022-10-22T09:16:36.354Z,15.77
2022-10-22T09:19:15.573Z,15.78
2022-10-22T09:22:45.843Z,15.78
2022-10-22T09:25:24.407Z,15.72
2022-10-22T09:27:52.640Z,15.86
2022-10-22T09:30:29.798Z,15.77
2022-10-22T09:33:09.990Z,15.89
2022-10-22T09:35:56.684Z,15.91
2022-10-22T09:38:28.889Z,15.93
2022-10-22T09:40:59.381Z,15.88
2022-10-22T09:43:26.546Z,16.12
2022-10-22T09:46:08.652Z,16.12
2022-10-22T09:49:04.162Z,16.10
2022-10-22T09:51:49.480Z,16.12
2022-10-22T09:54:33.225Z,16.25
2022-10-22T09:57:22.045Z,16.33
2022-10-22T09:59:51.387Z,16.48
2022-10-22T10:02:43.995Z,16.46
2022-10-22T10:05:23.291Z,16.57
2022-10-22T10:07:50.091Z,16.62
2022-10-22T10:10:52.258Z,16.69
2022-10-22T10:13:38.400Z,16.78
2022-10-22T10:16:43.336Z,16.85
2022-10-22T10:19:35.254Z,16.94
2022-10-22T10:22:18.843Z,16.97
2022-10-22T10:25:00.617Z,17.07
2022-10-22T10:27:51.528Z,17.04
2022-10-22T10:30:21.605Z,17.09
2022-10-22T10:33:11.772Z,17.11
2022-10-22T10:36:36.062Z,17.15
2022-10-22T10:39:30.182Z,17.20
2022-10-22T10:42:33.706Z,17.28
2022-10-22T10:45:43.975Z,17.31
2022-10-22T10:48:31.604Z,17.36
2022-10-22T10:51:25.162Z,17.40
2022-10-22T10:54:22.677Z,17.40
2022-10-22T10:56:57.714Z,17.47
2022-10-22T11:00:11.782Z,17.56
2022-10-22T11:03:09.857Z,17.59
2022-10-22T11:05:48.681Z,17.66
2022-10-22T11:08:23.590Z,17.58
2022-10-22T11:11:11.189Z,17.74
2022-10-22T11:13:44.900Z,17.68
2022-10-22T11:16:37.460Z,17.71
2022-10-22T11:19:46.140Z,17.80
2022-10-22T11:22:27.633Z,17.83
2022-10-22T11:25:19.529Z,17.96
2022-10-22T11:28:02.649Z,17.99
2022-10-22T11:30:36.142Z,18.04
2022-10-22T11:33:10.752Z,18.07
2022-10-22T11:35:46.280Z,18.05
2022-10-22T11:38:18.195Z,18.19
2022-10-22T11:41:00.958Z,18.24
2022-10-22T11:44:04.557Z,18.33
2022-10-22T11:46:57.901Z,18.52
2022-10-22T11:49:59.770Z,18.59
2022-10-22T11:52:32.804Z,18.58
2022-10-22T11:55:03.422Z,18.49
2022-10-22T11:57:38.525Z,18.50
2022-10-22T12:00:40.699Z,18.56
2022-10-22T12:03:30.775Z,18.57
2022-10-22T12:06:12.743Z,18.57
2022-10-22T12:08:52.896Z,18.58
2022-10-22T12:11:19.763Z,18.55
2022-10-22T12:14:14.364Z,18.54
2022-10-22T12:17:12.860Z,18.47
2022-10-22T12:19:43.877Z,18.59
2022-10-22T12:22:23.814Z,18.52
2022-10-22T12:25:00.721Z,18.55
2022-10-22T12:27:35.710Z,18.56
2022-10-22T12:30:23.539Z,18.58
2022-10-22T12:32:58.234Z,18.57
2022-10-22T12:35:29.774Z,18.59
2022-10-22T12:38:00.904Z,18.63
2022-10-22T12:40:31.743Z,18.71
2022-10-22T12:43:01.810Z,18.74
2022-10-22T12:45:31.932Z,18.61
2022-10-22T12:48:04.131Z,18.81
2022-10-22T12:50:40.365Z,18.83
2022-10-22T12:53:22.050Z,18.85
2022-10-22T12:55:52.382Z,18.86
2022-10-22T12:58:38.575Z,18.85
2022-10-22T13:01:05.787Z,18.80
2022-10-22T13:03:41.607Z,18.92
2022-10-22T13:06:25.705Z,18.93
2022-10-22T13:09:25.418Z,18.89
2022-10-22T13:12:06.964Z,18.94
2022-10-22T13:14:35.647Z,18.95
2022-10-22T13:17:16.297Z,18.96
2022-10-22T13:19:55.292Z,18.95
2022-10-22T13:22:42.000Z,18.85
2022-10-22T13:25:19.530Z,18.93
2022-10-22T13:27:50.299Z,18.93
2022-10-22T13:30:24.839Z,18.96
2022-10-22T13:33:23.335Z,18.95
2022-10-22T13:35:50.182Z,18.88
2022-10-22T13:38:20.400Z,18.93
2022-10-22T13:40:47.893Z,18.87
2022-10-22T13:43:16.335Z,18.97
2022-10-22T13:45:44.571Z,18.91
2022-10-22T13:48:21.692Z,18.98
2022-10-22T13:50:50.356Z,19.01
2022-10-22T13:53:22.752Z,19.02
2022-10-22T13:55:50.318Z,19.03
2022-10-22T13:58:20.467Z,18.98
2022-10-22T14:00:56.937Z,19.05
2022-10-22T14:03:30.308Z,19.03
2022-10-22T14:05:57.582Z,19.00
2022-10-22T14:08:26.546Z,19.08
2022-10-22T14:10:54.001Z,19.07
2022-10-22T14:13:21.300Z,19.09
2022-10-22T14:15:51.067Z,19.07
2022-10-22T14:18:26.772Z,19.07
2022-10-22T14:20:57.333Z,19.16
2022-10-22T14:23:28.439Z,19.20
2022-10-22T14:25:56.307Z,19.23
2022-10-22T14:28:23.085Z,19.28
2022-10-22T14:30:50.546Z,19.31
2022-10-22T14:33:23.830Z,19.34
2022-10-22T14:35:52.715Z,19.44
2022-10-22T14:38:20.107Z,19.45
2022-10-22T14:40:47.428Z,19.53
2022-10-22T14:43:21.706Z,19.54
2022-10-22T14:45:49.074Z,19.49
2022-10-22T14:48:16.298Z,19.56
2022-10-22T14:50:45.057Z,19.50
2022-10-22T14:53:13.490Z,19.61
2022-10-22T14:55:44.005Z,19.61
2022-10-22T14:58:12.313Z,19.55
2022-10-22T15:00:42.321Z,19.72
2022-10-22T15:03:09.642Z,19.76
2022-10-22T15:05:43.308Z,19.79
2022-10-22T15:08:11.161Z,19.86
2022-10-22T15:10:38.093Z,19.86
2022-10-22T15:13:04.924Z,19.76
2022-10-22T15:15:36.648Z,19.84
2022-10-22T15:18:06.174Z,19.93
2022-10-22T15:20:32.959Z,19.93
2022-10-22T15:23:00.440Z,20.01
2022-10-22T15:25:27.649Z,20.04
2022-10-22T15:27:58.467Z,19.94
2022-10-22T15:30:31.745Z,20.01
2022-10-22T15:32:58.508Z,20.02
2022-10-22T15:35:28.403Z,19.96
2022-10-22T15:37:55.419Z,19.91
2022-10-22T15:40:22.226Z,19.79
2022-10-22T15:42:49.027Z,19.76
2022-10-22T15:45:16.102Z,19.77
2022-10-22T15:47:48.066Z,19.77
2022-10-22T15:50:15.310Z,19.74
2022-10-22T15:52:42.273Z,19.68
2022-10-22T15:55:10.551Z,19.64
2022-10-22T15:57:38.597Z,19.57
2022-10-22T16:00:07.389Z,19.53
2022-10-22T16:02:34.292Z,19.47
2022-10-22T16:05:01.099Z,19.41
2022-10-22T16:07:27.992Z,19.27
2022-10-22T16:09:59.875Z,19.24
2022-10-22T16:12:26.721Z,19.27
2022-10-22T16:14:53.462Z,19.21
2022-10-22T16:17:20.233Z,19.05
2022-10-22T16:19:48.213Z,19.08
2022-10-22T16:22:15.702Z,19.04
2022-10-22T16:24:42.835Z,19.02
2022-10-22T16:27:10.531Z,18.97
2022-10-22T16:29:38.958Z,18.91
2022-10-22T16:32:06.152Z,18.83
2022-10-22T16:34:32.958Z,18.65
2022-10-22T16:36:59.766Z,18.69
2022-10-22T16:39:26.529Z,18.59
2022-10-22T16:41:53.320Z,18.59
2022-10-22T16:44:20.107Z,18.45
2022-10-22T16:46:46.965Z,18.46
2022-10-22T16:49:13.866Z,18.38
2022-10-22T16:51:40.664Z,18.24
2022-10-22T16:54:11.314Z,18.25
2022-10-22T16:56:39.374Z,18.22
2022-10-22T16:59:07.325Z,18.24
2022-10-22T17:01:39.501Z,18.19
2022-10-22T17:04:07.621Z,18.06
2022-10-22T17:06:34.486Z,18.07
2022-10-22T17:09:01.538Z,17.94
2022-10-22T17:11:30.181Z,17.86
2022-10-22T17:13:57.149Z,17.90
2022-10-22T17:16:24.967Z,17.77
2022-10-22T17:18:54.182Z,17.83
2022-10-22T17:21:21.701Z,17.80
2022-10-22T17:23:49.200Z,17.67
2022-10-22T17:26:22.694Z,17.59
2022-10-22T17:28:50.033Z,17.53
2022-10-22T17:31:37.407Z,17.50
2022-10-22T17:34:07.444Z,17.41
2022-10-22T17:36:36.067Z,17.45
2022-10-22T17:39:07.147Z,17.39
2022-10-22T17:41:36.589Z,17.40
2022-10-22T17:44:06.996Z,17.37
2022-10-22T17:46:33.855Z,17.26
2022-10-22T17:49:04.675Z,17.24
2022-10-22T17:51:32.127Z,17.20
2022-10-22T17:53:59.264Z,17.15
2022-10-22T17:56:32.261Z,17.10
2022-10-22T17:59:01.570Z,16.95
2022-10-22T18:01:35.109Z,17.01
2022-10-22T18:04:08.029Z,16.96
2022-10-22T18:06:35.710Z,16.89
2022-10-22T18:09:08.137Z,16.87
2022-10-22T18:11:37.218Z,16.87
2022-10-22T18:14:04.761Z,16.84
2022-10-22T18:16:31.574Z,16.81
2022-10-22T18:18:58.706Z,16.70
2022-10-22T18:21:28.661Z,16.74
2022-10-22T18:23:57.432Z,16.67
2022-10-22T18:26:26.740Z,16.56
2022-10-22T18:28:54.959Z,16.55
2022-10-22T18:31:24.732Z,16.61
2022-10-22T18:33:52.018Z,16.56
2022-10-22T18:36:22.024Z,16.53
2022-10-22T18:38:54.946Z,16.43
2022-10-22T18:41:22.273Z,16.27
2022-10-22T18:43:57.292Z,16.42
2022-10-22T18:46:25.979Z,16.40
2022-10-22T18:48:57.169Z,16.35
2022-10-22T18:51:26.700Z,16.29
2022-10-22T18:54:11.528Z,16.22
2022-10-22T18:56:43.431Z,16.28
2022-10-22T18:59:24.802Z,16.25
2022-10-22T19:01:59.365Z,16.21
2022-10-22T19:04:36.687Z,16.16
2022-10-22T19:07:05.375Z,16.01
2022-10-22T19:09:32.397Z,16.04
2022-10-22T19:11:59.577Z,16.09
2022-10-22T19:14:26.474Z,16.07
2022-10-22T19:16:53.540Z,16.00
2022-10-22T19:19:22.285Z,15.95
2022-10-22T19:21:49.330Z,15.90
2022-10-22T19:24:19.605Z,15.83
2022-10-22T19:26:48.243Z,15.89
2022-10-22T19:29:17.994Z,15.86
2022-10-22T19:31:45.193Z,15.75
2022-10-22T19:34:11.931Z,15.85
2022-10-22T19:36:38.738Z,15.72
2022-10-22T19:39:06.688Z,15.79
2022-10-22T19:41:34.791Z,15.78
2022-10-22T19:44:01.728Z,15.75
2022-10-22T19:46:32.337Z,15.64
2022-10-22T19:48:59.584Z,15.69
2022-10-22T19:51:33.832Z,15.68
2022-10-22T19:54:07.224Z,15.61
2022-10-22T19:56:35.792Z,15.52
2022-10-22T19:59:05.467Z,15.56
2022-10-22T20:01:32.514Z,15.47
2022-10-22T20:04:00.197Z,15.45
2022-10-22T20:06:27.281Z,15.51
2022-10-22T20:08:56.130Z,15.52
2022-10-22T20:11:28.147Z,15.47
2022-10-22T20:13:56.478Z,15.47
2022-10-22T20:16:28.308Z,15.44
2022-10-22T20:18:56.045Z,15.43
2022-10-22T20:21:22.894Z,15.36
2022-10-22T20:23:53.492Z,15.32
2022-10-22T20:26:21.290Z,15.35
2022-10-22T20:28:48.086Z,15.28
2022-10-22T20:31:20.508Z,15.31
2022-10-22T20:33:48.410Z,15.27
2022-10-22T20:36:23.539Z,15.19
2022-10-22T20:38:51.633Z,15.21
2022-10-22T20:41:22.150Z,15.15
2022-10-22T20:43:51.526Z,15.15
2022-10-22T20:46:29.057Z,15.15
2022-10-22T20:49:01.468Z,15.07
2022-10-22T20:51:29.095Z,15.11
2022-10-22T20:53:56.150Z,15.07
2022-10-22T20:56:23.301Z,14.97
2022-10-22T20:58:56.554Z,15.01
2022-10-22T21:01:24.215Z,14.99
2022-10-22T21:03:53.076Z,14.83
2022-10-22T21:06:23.030Z,14.93
2022-10-22T21:08:51.520Z,14.75
2022-10-22T21:11:19.897Z,14.87
2022-10-22T21:13:47.153Z,14.84
2022-10-22T21:16:15.652Z,14.87
2022-10-22T21:18:42.497Z,14.84
2022-10-22T21:21:10.564Z,14.83
2022-10-22T21:23:37.542Z,14.80
2022-10-22T21:26:05.387Z,14.77
2022-10-22T21:28:36.894Z,14.77
2022-10-22T21:31:10.203Z,14.74
2022-10-22T21:33:40.184Z,14.69
2022-10-22T21:36:09.106Z,14.63
2022-10-22T21:38:37.599Z,14.68
2022-10-22T21:41:10.326Z,14.60
2022-10-22T21:43:39.084Z,14.63
2022-10-22T21:46:13.678Z,14.62
2022-10-22T21:48:40.638Z,14.42
2022-10-22T21:51:12.449Z,14.59
2022-10-22T21:53:39.911Z,14.49
2022-10-22T21:56:08.579Z,14.55
2022-10-22T21:58:36.204Z,14.49
2022-10-22T22:01:04.002Z,14.51
2022-10-22T22:03:30.862Z,14.51
2022-10-22T22:06:04.812Z,14.52
2022-10-22T22:08:32.467Z,14.49
2022-10-22T22:11:10.496Z,14.40
2022-10-22T22:13:37.652Z,14.38
2022-10-22T22:16:11.474Z,14.46
2022-10-22T22:18:39.958Z,14.38
2022-10-22T22:21:11.010Z,14.44
2022-10-22T22:23:40.597Z,14.45
2022-10-22T22:26:08.414Z,14.39
2022-10-22T22:28:36.348Z,14.36
2022-10-22T22:31:34.583Z,14.46
2022-10-22T22:34:14.402Z,14.42
2022-10-22T22:36:46.956Z,14.44
2022-10-22T22:39:18.866Z,14.30
2022-10-22T22:41:46.649Z,14.26
2022-10-22T22:44:13.849Z,14.33
2022-10-22T22:46:41.221Z,14.36
2022-10-22T22:49:08.521Z,14.31
2022-10-22T22:51:35.360Z,14.23
2022-10-22T22:54:02.272Z,14.24
2022-10-22T22:56:32.274Z,14.30
2022-10-22T22:58:59.102Z,14.20
2022-10-22T23:01:30.238Z,14.28
2022-10-22T23:04:01.369Z,14.18
2022-10-22T23:06:32.335Z,14.24
2022-10-22T23:08:59.683Z,14.22
2022-10-22T23:11:28.078Z,14.19
2022-10-22T23:14:01.914Z,14.14
2022-10-22T23:16:36.628Z,14.01
2022-10-22T23:19:05.093Z,14.08
2022-10-22T23:21:38.453Z,14.09
2022-10-22T23:24:11.542Z,14.07
2022-10-22T23:26:42.519Z,14.03
2022-10-22T23:29:13.265Z,13.92
2022-10-22T23:31:40.850Z,13.81
2022-10-22T23:34:08.557Z,14.00
2022-10-22T23:36:36.712Z,13.99
2022-10-22T23:39:10.233Z,13.93
2022-10-22T23:41:37.738Z,13.87
2022-10-22T23:44:05.819Z,13.77
2022-10-22T23:46:33.378Z,13.83
2022-10-22T23:49:01.129Z,13.74
2022-10-22T23:51:28.414Z,13.69
2022-10-22T23:53:58.452Z,13.72
2022-10-22T23:56:26.130Z,13.75
2022-10-22T23:58:54.188Z,13.74
